sensor_id;sensor_type;location;lat;lon;timestamp;P1;durP1;ratioP1;P2;durP2;ratioP2
9888;SDS011;4983;42.112;24.738;2023-03-01T00:02:02;3.97;;;3.67;;
9888;SDS011;4983;42.112;24.738;2023-03-01T00:04:30;4.50;;;4.10;;
9888;SDS011;4983;42.112;24.738;2023-03-01T00:06:58;4.70;;;4.30;;
9888;SDS011;4983;42.112;24.738;2023-03-01T00:09:25;4.53;;;4.07;;
9888;SDS011;4983;42.112;24.738;2023-03-01T00:11:51;4.80;;;4.37;;
9888;SDS011;4983;42.112;24.738;2023-03-01T00:14:19;4.57;;;4.17;;
9888;SDS011;4983;42.112;24.738;2023-03-01T00:16:46;4.20;;;3.90;;
9888;SDS011;4983;42.112;24.738;2023-03-01T00:19:14;5.27;;;4.20;;
9888;SDS011;4983;42.112;24.738;2023-03-01T00:21:41;4.67;;;4.27;;
9888;SDS011;4983;42.112;24.738;2023-03-01T00:24:09;4.50;;;4.10;;
9888;SDS011;4983;42.112;24.738;2023-03-01T00:26:36;4.90;;;3.60;;
9888;SDS011;4983;42.112;24.738;2023-03-01T00:29:03;4.57;;;4.17;;
9888;SDS011;4983;42.112;24.738;2023-03-01T00:31:31;4.20;;;3.90;;
9888;SDS011;4983;42.112;24.738;2023-03-01T00:34:00;4.10;;;3.80;;
9888;SDS011;4983;42.112;24.738;2023-03-01T00:36:27;4.10;;;3.80;;
9888;SDS011;4983;42.112;24.738;2023-03-01T00:38:55;4.03;;;3.70;;
9888;SDS011;4983;42.112;24.738;2023-03-01T00:41:24;4.10;;;3.80;;
9888;SDS011;4983;42.112;24.738;2023-03-01T00:43:52;3.70;;;3.40;;
9888;SDS011;4983;42.112;24.738;2023-03-01T00:46:19;3.77;;;3.47;;
9888;SDS011;4983;42.112;24.738;2023-03-01T00:48:47;4.10;;;3.80;;
9888;SDS011;4983;42.112;24.738;2023-03-01T00:51:18;3.70;;;3.40;;
9888;SDS011;4983;42.112;24.738;2023-03-01T00:53:45;3.60;;;3.30;;
9888;SDS011;4983;42.112;24.738;2023-03-01T00:56:13;3.60;;;3.30;;
9888;SDS011;4983;42.112;24.738;2023-03-01T00:58:42;3.77;;;3.47;;
9888;SDS011;4983;42.112;24.738;2023-03-01T01:01:09;3.70;;;3.40;;
9888;SDS011;4983;42.112;24.738;2023-03-01T01:03:43;3.80;;;3.50;;
9888;SDS011;4983;42.112;24.738;2023-03-01T01:06:13;3.70;;;3.40;;
9888;SDS011;4983;42.112;24.738;2023-03-01T01:08:40;3.70;;;3.20;;
9888;SDS011;4983;42.112;24.738;2023-03-01T01:11:08;3.53;;;3.23;;
9888;SDS011;4983;42.112;24.738;2023-03-01T01:13:35;3.30;;;3.00;;
9888;SDS011;4983;42.112;24.738;2023-03-01T01:16:03;3.13;;;2.93;;
9888;SDS011;4983;42.112;24.738;2023-03-01T01:18:30;3.60;;;3.30;;
9888;SDS011;4983;42.112;24.738;2023-03-01T01:20:57;3.33;;;3.03;;
9888;SDS011;4983;42.112;24.738;2023-03-01T01:23:24;4.00;;;2.90;;
9888;SDS011;4983;42.112;24.738;2023-03-01T01:25:51;3.10;;;2.90;;
9888;SDS011;4983;42.112;24.738;2023-03-01T01:28:17;3.97;;;3.20;;
9888;SDS011;4983;42.112;24.738;2023-03-01T01:30:44;3.50;;;3.20;;
9888;SDS011;4983;42.112;24.738;2023-03-01T01:33:12;3.80;;;3.40;;
9888;SDS011;4983;42.112;24.738;2023-03-01T01:35:39;3.13;;;2.90;;
9888;SDS011;4983;42.112;24.738;2023-03-01T01:38:09;3.50;;;3.20;;
9888;SDS011;4983;42.112;24.738;2023-03-01T01:40:42;3.50;;;3.20;;
9888;SDS011;4983;42.112;24.738;2023-03-01T01:43:12;3.40;;;3.10;;
9888;SDS011;4983;42.112;24.738;2023-03-01T01:45:43;3.53;;;3.23;;
9888;SDS011;4983;42.112;24.738;2023-03-01T01:48:10;3.93;;;3.63;;
9888;SDS011;4983;42.112;24.738;2023-03-01T01:50:40;3.87;;;3.57;;
9888;SDS011;4983;42.112;24.738;2023-03-01T01:53:12;3.60;;;3.30;;
9888;SDS011;4983;42.112;24.738;2023-03-01T01:55:41;3.97;;;3.67;;
9888;SDS011;4983;42.112;24.738;2023-03-01T01:58:08;4.27;;;3.90;;
9888;SDS011;4983;42.112;24.738;2023-03-01T02:00:36;4.37;;;4.00;;
9888;SDS011;4983;42.112;24.738;2023-03-01T02:03:04;4.53;;;4.13;;
9888;SDS011;4983;42.112;24.738;2023-03-01T02:05:36;4.90;;;4.50;;
9888;SDS011;4983;42.112;24.738;2023-03-01T02:08:08;5.00;;;4.60;;
9888;SDS011;4983;42.112;24.738;2023-03-01T02:10:34;5.00;;;4.60;;
9888;SDS011;4983;42.112;24.738;2023-03-01T02:13:01;5.20;;;4.80;;
9888;SDS011;4983;42.112;24.738;2023-03-01T02:15:31;5.67;;;5.07;;
9888;SDS011;4983;42.112;24.738;2023-03-01T02:17:58;5.20;;;4.80;;
9888;SDS011;4983;42.112;24.738;2023-03-01T02:20:27;4.90;;;4.50;;
9888;SDS011;4983;42.112;24.738;2023-03-01T02:22:56;7.40;;;4.80;;
9888;SDS011;4983;42.112;24.738;2023-03-01T02:25:28;5.43;;;4.93;;
9888;SDS011;4983;42.112;24.738;2023-03-01T02:27:58;5.43;;;4.93;;
9888;SDS011;4983;42.112;24.738;2023-03-01T02:30:28;5.20;;;4.70;;
9888;SDS011;4983;42.112;24.738;2023-03-01T02:32:56;5.80;;;4.50;;
9888;SDS011;4983;42.112;24.738;2023-03-01T02:35:28;5.10;;;4.70;;
9888;SDS011;4983;42.112;24.738;2023-03-01T02:37:56;5.50;;;5.00;;
9888;SDS011;4983;42.112;24.738;2023-03-01T02:40:25;4.40;;;4.10;;
9888;SDS011;4983;42.112;24.738;2023-03-01T02:42:57;4.60;;;4.20;;
9888;SDS011;4983;42.112;24.738;2023-03-01T02:45:25;4.80;;;4.40;;
9888;SDS011;4983;42.112;24.738;2023-03-01T02:47:54;5.17;;;4.37;;
9888;SDS011;4983;42.112;24.738;2023-03-01T02:50:29;4.53;;;4.13;;
9888;SDS011;4983;42.112;24.738;2023-03-01T02:53:04;5.37;;;4.87;;
9888;SDS011;4983;42.112;24.738;2023-03-01T02:55:31;6.80;;;4.97;;
9888;SDS011;4983;42.112;24.738;2023-03-01T02:57:58;5.23;;;4.83;;
9888;SDS011;4983;42.112;24.738;2023-03-01T03:00:30;5.63;;;4.80;;
9888;SDS011;4983;42.112;24.738;2023-03-01T03:02:59;7.60;;;4.97;;
9888;SDS011;4983;42.112;24.738;2023-03-01T03:05:27;5.97;;;5.47;;
9888;SDS011;4983;42.112;24.738;2023-03-01T03:07:54;5.13;;;4.63;;
9888;SDS011;4983;42.112;24.738;2023-03-01T03:10:21;5.80;;;5.30;;
9888;SDS011;4983;42.112;24.738;2023-03-01T03:12:51;6.37;;;5.80;;
9888;SDS011;4983;42.112;24.738;2023-03-01T03:15:19;6.63;;;5.20;;
9888;SDS011;4983;42.112;24.738;2023-03-01T03:17:46;5.90;;;5.40;;
9888;SDS011;4983;42.112;24.738;2023-03-01T03:20:15;5.63;;;5.13;;
9888;SDS011;4983;42.112;24.738;2023-03-01T03:22:45;5.07;;;4.67;;
9888;SDS011;4983;42.112;24.738;2023-03-01T03:25:12;6.07;;;5.57;;
9888;SDS011;4983;42.112;24.738;2023-03-01T03:27:45;5.20;;;4.80;;
9888;SDS011;4983;42.112;24.738;2023-03-01T03:30:13;6.03;;;5.53;;
9888;SDS011;4983;42.112;24.738;2023-03-01T03:32:40;6.43;;;5.83;;
9888;SDS011;4983;42.112;24.738;2023-03-01T03:35:09;5.60;;;5.10;;
9888;SDS011;4983;42.112;24.738;2023-03-01T03:37:38;5.83;;;5.23;;
9888;SDS011;4983;42.112;24.738;2023-03-01T03:40:23;6.00;;;5.50;;
9888;SDS011;4983;42.112;24.738;2023-03-01T03:42:49;6.33;;;5.73;;
9888;SDS011;4983;42.112;24.738;2023-03-01T03:45:17;6.10;;;5.60;;
9888;SDS011;4983;42.112;24.738;2023-03-01T03:47:44;5.90;;;5.03;;
9888;SDS011;4983;42.112;24.738;2023-03-01T03:50:11;5.73;;;5.23;;
9888;SDS011;4983;42.112;24.738;2023-03-01T03:52:40;5.87;;;5.37;;
9888;SDS011;4983;42.112;24.738;2023-03-01T03:55:07;6.60;;;5.90;;
9888;SDS011;4983;42.112;24.738;2023-03-01T03:57:36;5.67;;;5.27;;
9888;SDS011;4983;42.112;24.738;2023-03-01T04:00:03;6.23;;;5.73;;
9888;SDS011;4983;42.112;24.738;2023-03-01T04:02:31;8.23;;;6.70;;
9888;SDS011;4983;42.112;24.738;2023-03-01T04:04:57;7.53;;;6.83;;
9888;SDS011;4983;42.112;24.738;2023-03-01T04:07:24;7.43;;;6.80;;
9888;SDS011;4983;42.112;24.738;2023-03-01T04:09:52;6.27;;;5.77;;
9888;SDS011;4983;42.112;24.738;2023-03-01T04:12:19;7.83;;;7.13;;
9888;SDS011;4983;42.112;24.738;2023-03-01T04:14:48;8.87;;;8.17;;
9888;SDS011;4983;42.112;24.738;2023-03-01T04:17:15;9.60;;;8.70;;
9888;SDS011;4983;42.112;24.738;2023-03-01T04:19:43;8.13;;;7.33;;
9888;SDS011;4983;42.112;24.738;2023-03-01T04:22:13;7.93;;;7.23;;
9888;SDS011;4983;42.112;24.738;2023-03-01T04:24:44;7.50;;;6.80;;
9888;SDS011;4983;42.112;24.738;2023-03-01T04:27:13;7.70;;;7.03;;
9888;SDS011;4983;42.112;24.738;2023-03-01T04:29:39;10.33;;;9.43;;
9888;SDS011;4983;42.112;24.738;2023-03-01T04:32:06;12.40;;;11.27;;
9888;SDS011;4983;42.112;24.738;2023-03-01T04:34:33;11.50;;;10.40;;
9888;SDS011;4983;42.112;24.738;2023-03-01T04:37:01;8.60;;;7.80;;
9888;SDS011;4983;42.112;24.738;2023-03-01T04:39:28;7.80;;;6.87;;
9888;SDS011;4983;42.112;24.738;2023-03-01T04:41:55;7.83;;;7.03;;
9888;SDS011;4983;42.112;24.738;2023-03-01T04:44:24;8.33;;;7.57;;
9888;SDS011;4983;42.112;24.738;2023-03-01T04:46:50;10.00;;;9.00;;
9888;SDS011;4983;42.112;24.738;2023-03-01T04:49:17;7.73;;;7.03;;
9888;SDS011;4983;42.112;24.738;2023-03-01T04:51:44;7.27;;;6.67;;
9888;SDS011;4983;42.112;24.738;2023-03-01T04:54:11;7.80;;;7.10;;
9888;SDS011;4983;42.112;24.738;2023-03-01T04:56:38;10.00;;;9.00;;
9888;SDS011;4983;42.112;24.738;2023-03-01T04:59:04;12.97;;;11.60;;
9888;SDS011;4983;42.112;24.738;2023-03-01T05:01:33;8.83;;;7.63;;
9888;SDS011;4983;42.112;24.738;2023-03-01T05:04:01;8.33;;;7.53;;
9888;SDS011;4983;42.112;24.738;2023-03-01T05:06:30;9.30;;;8.33;;
9888;SDS011;4983;42.112;24.738;2023-03-01T05:08:58;8.77;;;7.97;;
9888;SDS011;4983;42.112;24.738;2023-03-01T05:11:24;8.23;;;7.53;;
9888;SDS011;4983;42.112;24.738;2023-03-01T05:13:53;8.90;;;8.00;;
9888;SDS011;4983;42.112;24.738;2023-03-01T05:16:20;9.27;;;8.47;;
9888;SDS011;4983;42.112;24.738;2023-03-01T05:18:49;9.10;;;8.20;;
9888;SDS011;4983;42.112;24.738;2023-03-01T05:21:17;8.80;;;7.90;;
9888;SDS011;4983;42.112;24.738;2023-03-01T05:23:44;8.90;;;8.10;;
9888;SDS011;4983;42.112;24.738;2023-03-01T05:26:12;8.93;;;8.13;;
9888;SDS011;4983;42.112;24.738;2023-03-01T05:28:39;9.07;;;8.27;;
9888;SDS011;4983;42.112;24.738;2023-03-01T05:31:07;15.17;;;10.77;;
9888;SDS011;4983;42.112;24.738;2023-03-01T05:33:35;11.83;;;9.70;;
9888;SDS011;4983;42.112;24.738;2023-03-01T05:36:06;11.80;;;10.70;;
9888;SDS011;4983;42.112;24.738;2023-03-01T05:38:33;9.63;;;8.73;;
9888;SDS011;4983;42.112;24.738;2023-03-01T05:41:00;9.77;;;8.90;;
9888;SDS011;4983;42.112;24.738;2023-03-01T05:43:29;10.03;;;9.13;;
9888;SDS011;4983;42.112;24.738;2023-03-01T05:45:57;11.07;;;9.97;;
9888;SDS011;4983;42.112;24.738;2023-03-01T05:48:25;10.33;;;9.27;;
9888;SDS011;4983;42.112;24.738;2023-03-01T05:50:52;10.00;;;9.20;;
9888;SDS011;4983;42.112;24.738;2023-03-01T05:53:21;10.67;;;9.77;;
9888;SDS011;4983;42.112;24.738;2023-03-01T05:55:48;9.40;;;8.60;;
9888;SDS011;4983;42.112;24.738;2023-03-01T05:58:16;9.47;;;8.47;;
9888;SDS011;4983;42.112;24.738;2023-03-01T06:00:43;10.20;;;9.30;;
9888;SDS011;4983;42.112;24.738;2023-03-01T06:03:13;9.17;;;8.37;;
9888;SDS011;4983;42.112;24.738;2023-03-01T06:05:40;12.63;;;9.53;;
9888;SDS011;4983;42.112;24.738;2023-03-01T06:08:08;10.90;;;9.80;;
9888;SDS011;4983;42.112;24.738;2023-03-01T06:10:37;11.30;;;9.13;;
9888;SDS011;4983;42.112;24.738;2023-03-01T06:13:05;22.90;;;19.63;;
9888;SDS011;4983;42.112;24.738;2023-03-01T06:15:31;10.07;;;9.13;;
9888;SDS011;4983;42.112;24.738;2023-03-01T06:17:58;10.10;;;9.10;;
9888;SDS011;4983;42.112;24.738;2023-03-01T06:20:25;10.10;;;9.20;;
9888;SDS011;4983;42.112;24.738;2023-03-01T06:22:52;10.70;;;9.60;;
9888;SDS011;4983;42.112;24.738;2023-03-01T06:25:20;11.63;;;10.43;;
9888;SDS011;4983;42.112;24.738;2023-03-01T06:27:49;16.70;;;14.87;;
9888;SDS011;4983;42.112;24.738;2023-03-01T06:30:18;14.63;;;13.13;;
9888;SDS011;4983;42.112;24.738;2023-03-01T06:32:45;20.93;;;17.13;;
9888;SDS011;4983;42.112;24.738;2023-03-01T06:35:14;19.63;;;16.27;;
9888;SDS011;4983;42.112;24.738;2023-03-01T06:37:43;8.40;;;7.67;;
9888;SDS011;4983;42.112;24.738;2023-03-01T06:40:11;8.03;;;7.33;;
9888;SDS011;4983;42.112;24.738;2023-03-01T06:42:39;7.17;;;6.57;;
9888;SDS011;4983;42.112;24.738;2023-03-01T06:45:10;5.70;;;5.20;;
9888;SDS011;4983;42.112;24.738;2023-03-01T06:47:37;5.90;;;5.40;;
9888;SDS011;4983;42.112;24.738;2023-03-01T06:50:04;7.87;;;6.83;;
9888;SDS011;4983;42.112;24.738;2023-03-01T06:52:31;10.80;;;9.13;;
9888;SDS011;4983;42.112;24.738;2023-03-01T06:54:58;8.83;;;7.90;;
9888;SDS011;4983;42.112;24.738;2023-03-01T06:57:25;8.30;;;7.60;;
9888;SDS011;4983;42.112;24.738;2023-03-01T06:59:52;7.20;;;6.50;;
9888;SDS011;4983;42.112;24.738;2023-03-01T07:02:20;6.30;;;5.70;;
9888;SDS011;4983;42.112;24.738;2023-03-01T07:04:48;6.13;;;5.53;;
9888;SDS011;4983;42.112;24.738;2023-03-01T07:07:15;6.87;;;6.17;;
9888;SDS011;4983;42.112;24.738;2023-03-01T07:09:43;8.60;;;6.73;;
9888;SDS011;4983;42.112;24.738;2023-03-01T07:12:10;17.40;;;12.83;;
9888;SDS011;4983;42.112;24.738;2023-03-01T07:14:37;9.83;;;8.40;;
9888;SDS011;4983;42.112;24.738;2023-03-01T07:17:03;6.80;;;6.20;;
9888;SDS011;4983;42.112;24.738;2023-03-01T07:19:32;7.20;;;6.50;;
9888;SDS011;4983;42.112;24.738;2023-03-01T07:21:58;7.47;;;6.77;;
9888;SDS011;4983;42.112;24.738;2023-03-01T07:24:25;9.10;;;6.70;;
9888;SDS011;4983;42.112;24.738;2023-03-01T07:26:53;6.30;;;5.63;;
9888;SDS011;4983;42.112;24.738;2023-03-01T07:29:20;5.20;;;4.70;;
9888;SDS011;4983;42.112;24.738;2023-03-01T07:31:46;5.67;;;5.03;;
9888;SDS011;4983;42.112;24.738;2023-03-01T07:34:13;6.20;;;4.57;;
9888;SDS011;4983;42.112;24.738;2023-03-01T07:36:41;5.67;;;5.07;;
9888;SDS011;4983;42.112;24.738;2023-03-01T07:39:10;6.27;;;4.97;;
9888;SDS011;4983;42.112;24.738;2023-03-01T07:41:37;6.13;;;5.63;;
9888;SDS011;4983;42.112;24.738;2023-03-01T07:44:04;5.80;;;5.30;;
9888;SDS011;4983;42.112;24.738;2023-03-01T07:46:31;6.33;;;5.73;;
9888;SDS011;4983;42.112;24.738;2023-03-01T07:48:57;5.90;;;5.27;;
9888;SDS011;4983;42.112;24.738;2023-03-01T07:51:24;5.60;;;5.20;;
9888;SDS011;4983;42.112;24.738;2023-03-01T07:53:53;6.20;;;5.60;;
9888;SDS011;4983;42.112;24.738;2023-03-01T07:56:19;5.83;;;5.33;;
9888;SDS011;4983;42.112;24.738;2023-03-01T07:58:47;5.63;;;5.03;;
9888;SDS011;4983;42.112;24.738;2023-03-01T08:01:14;5.77;;;5.17;;
9888;SDS011;4983;42.112;24.738;2023-03-01T08:03:41;4.43;;;4.13;;
9888;SDS011;4983;42.112;24.738;2023-03-01T08:06:09;6.83;;;5.27;;
9888;SDS011;4983;42.112;24.738;2023-03-01T08:08:36;4.53;;;4.13;;
9888;SDS011;4983;42.112;24.738;2023-03-01T08:11:05;4.83;;;3.80;;
9888;SDS011;4983;42.112;24.738;2023-03-01T08:13:33;3.33;;;3.03;;
9888;SDS011;4983;42.112;24.738;2023-03-01T08:16:00;3.10;;;2.80;;
9888;SDS011;4983;42.112;24.738;2023-03-01T08:18:27;4.07;;;2.90;;
9888;SDS011;4983;42.112;24.738;2023-03-01T08:20:54;3.37;;;2.60;;
9888;SDS011;4983;42.112;24.738;2023-03-01T08:23:21;2.63;;;2.43;;
9888;SDS011;4983;42.112;24.738;2023-03-01T08:25:47;2.60;;;2.40;;
9888;SDS011;4983;42.112;24.738;2023-03-01T08:28:15;2.60;;;2.40;;
9888;SDS011;4983;42.112;24.738;2023-03-01T08:30:42;4.30;;;2.50;;
9888;SDS011;4983;42.112;24.738;2023-03-01T08:33:09;3.70;;;3.40;;
9888;SDS011;4983;42.112;24.738;2023-03-01T08:35:36;3.63;;;2.97;;
9888;SDS011;4983;42.112;24.738;2023-03-01T08:38:03;2.90;;;2.70;;
9888;SDS011;4983;42.112;24.738;2023-03-01T08:40:29;2.53;;;2.33;;
9888;SDS011;4983;42.112;24.738;2023-03-01T08:42:57;4.30;;;3.90;;
9888;SDS011;4983;42.112;24.738;2023-03-01T08:45:25;2.53;;;2.33;;
9888;SDS011;4983;42.112;24.738;2023-03-01T08:47:52;4.20;;;2.50;;
9888;SDS011;4983;42.112;24.738;2023-03-01T08:50:19;2.67;;;2.47;;
9888;SDS011;4983;42.112;24.738;2023-03-01T08:52:46;2.73;;;2.47;;
9888;SDS011;4983;42.112;24.738;2023-03-01T08:55:13;2.80;;;2.20;;
9888;SDS011;4983;42.112;24.738;2023-03-01T08:57:42;3.20;;;2.70;;
9888;SDS011;4983;42.112;24.738;2023-03-01T09:00:09;2.77;;;2.50;;
9888;SDS011;4983;42.112;24.738;2023-03-01T09:02:38;2.50;;;2.30;;
9888;SDS011;4983;42.112;24.738;2023-03-01T09:05:05;3.50;;;2.40;;
9888;SDS011;4983;42.112;24.738;2023-03-01T09:07:32;2.80;;;2.50;;
9888;SDS011;4983;42.112;24.738;2023-03-01T09:09:59;2.30;;;2.10;;
9888;SDS011;4983;42.112;24.738;2023-03-01T09:12:26;3.00;;;2.70;;
9888;SDS011;4983;42.112;24.738;2023-03-01T09:14:53;2.63;;;2.10;;
9888;SDS011;4983;42.112;24.738;2023-03-01T09:17:20;3.57;;;2.70;;
9888;SDS011;4983;42.112;24.738;2023-03-01T09:19:49;3.33;;;2.80;;
9888;SDS011;4983;42.112;24.738;2023-03-01T09:22:17;2.87;;;2.67;;
9888;SDS011;4983;42.112;24.738;2023-03-01T09:24:43;3.20;;;2.40;;
9888;SDS011;4983;42.112;24.738;2023-03-01T09:27:10;2.43;;;2.23;;
9888;SDS011;4983;42.112;24.738;2023-03-01T09:29:38;3.70;;;2.60;;
9888;SDS011;4983;42.112;24.738;2023-03-01T09:32:05;3.57;;;2.30;;
9888;SDS011;4983;42.112;24.738;2023-03-01T09:34:33;2.70;;;2.50;;
9888;SDS011;4983;42.112;24.738;2023-03-01T09:37:22;4.20;;;2.43;;
9888;SDS011;4983;42.112;24.738;2023-03-01T09:39:48;2.70;;;2.20;;
9888;SDS011;4983;42.112;24.738;2023-03-01T09:42:15;4.23;;;2.67;;
9888;SDS011;4983;42.112;24.738;2023-03-01T09:44:43;2.90;;;2.70;;
9888;SDS011;4983;42.112;24.738;2023-03-01T09:47:15;3.20;;;2.60;;
9888;SDS011;4983;42.112;24.738;2023-03-01T09:49:43;2.60;;;2.40;;
9888;SDS011;4983;42.112;24.738;2023-03-01T09:52:19;2.70;;;2.50;;
9888;SDS011;4983;42.112;24.738;2023-03-01T09:54:49;3.10;;;2.20;;
9888;SDS011;4983;42.112;24.738;2023-03-01T09:57:23;2.97;;;2.70;;
9888;SDS011;4983;42.112;24.738;2023-03-01T09:59:57;4.57;;;2.90;;
9888;SDS011;4983;42.112;24.738;2023-03-01T10:02:31;3.97;;;2.70;;
9888;SDS011;4983;42.112;24.738;2023-03-01T10:05:05;3.70;;;3.30;;
9888;SDS011;4983;42.112;24.738;2023-03-01T10:07:38;2.40;;;2.20;;
9888;SDS011;4983;42.112;24.738;2023-03-01T10:10:10;2.70;;;2.50;;
9888;SDS011;4983;42.112;24.738;2023-03-01T10:12:41;3.30;;;3.00;;
9888;SDS011;4983;42.112;24.738;2023-03-01T10:15:10;5.30;;;4.80;;
9888;SDS011;4983;42.112;24.738;2023-03-01T10:17:42;5.20;;;4.80;;
9888;SDS011;4983;42.112;24.738;2023-03-01T10:20:14;6.10;;;4.37;;
9888;SDS011;4983;42.112;24.738;2023-03-01T10:22:44;4.83;;;4.40;;
9888;SDS011;4983;42.112;24.738;2023-03-01T10:25:20;3.57;;;2.87;;
9888;SDS011;4983;42.112;24.738;2023-03-01T10:27:51;3.97;;;3.30;;
9888;SDS011;4983;42.112;24.738;2023-03-01T10:30:19;4.27;;;3.40;;
9888;SDS011;4983;42.112;24.738;2023-03-01T10:32:47;3.50;;;3.20;;
9888;SDS011;4983;42.112;24.738;2023-03-01T10:35:16;3.70;;;3.33;;
9888;SDS011;4983;42.112;24.738;2023-03-01T10:37:56;4.75;;;3.40;;
9888;SDS011;4983;42.112;24.738;2023-03-01T10:40:25;3.23;;;2.63;;
9888;SDS011;4983;42.112;24.738;2023-03-01T10:42:52;3.40;;;1.87;;
9888;SDS011;4983;42.112;24.738;2023-03-01T10:45:30;2.40;;;2.20;;
9888;SDS011;4983;42.112;24.738;2023-03-01T10:48:04;4.73;;;2.60;;
9888;SDS011;4983;42.112;24.738;2023-03-01T10:50:31;5.60;;;3.40;;
9888;SDS011;4983;42.112;24.738;2023-03-01T10:52:58;7.40;;;2.50;;
9888;SDS011;4983;42.112;24.738;2023-03-01T10:55:29;4.73;;;2.90;;
9888;SDS011;4983;42.112;24.738;2023-03-01T10:58:08;3.07;;;2.77;;
9888;SDS011;4983;42.112;24.738;2023-03-01T11:00:45;3.60;;;3.30;;
9888;SDS011;4983;42.112;24.738;2023-03-01T11:03:13;4.60;;;3.90;;
9888;SDS011;4983;42.112;24.738;2023-03-01T11:05:53;7.47;;;3.20;;
9888;SDS011;4983;42.112;24.738;2023-03-01T11:08:31;4.10;;;3.13;;
9888;SDS011;4983;42.112;24.738;2023-03-01T11:11:06;2.73;;;2.43;;
9888;SDS011;4983;42.112;24.738;2023-03-01T11:13:33;4.30;;;2.77;;
9888;SDS011;4983;42.112;24.738;2023-03-01T11:16:00;2.87;;;2.40;;
9888;SDS011;4983;42.112;24.738;2023-03-01T11:18:28;2.10;;;1.90;;
9888;SDS011;4983;42.112;24.738;2023-03-01T11:20:55;3.13;;;1.90;;
9888;SDS011;4983;42.112;24.738;2023-03-01T11:23:23;1.90;;;1.63;;
9888;SDS011;4983;42.112;24.738;2023-03-01T11:25:51;2.70;;;2.50;;
9888;SDS011;4983;42.112;24.738;2023-03-01T11:28:22;2.63;;;2.07;;
9888;SDS011;4983;42.112;24.738;2023-03-01T11:30:51;2.70;;;2.33;;
9888;SDS011;4983;42.112;24.738;2023-03-01T11:33:24;3.40;;;3.10;;
9888;SDS011;4983;42.112;24.738;2023-03-01T11:36:00;3.77;;;3.00;;
9888;SDS011;4983;42.112;24.738;2023-03-01T11:38:29;3.10;;;2.80;;
9888;SDS011;4983;42.112;24.738;2023-03-01T11:40:59;3.33;;;3.03;;
9888;SDS011;4983;42.112;24.738;2023-03-01T11:43:35;3.77;;;3.20;;
9888;SDS011;4983;42.112;24.738;2023-03-01T11:48:50;2.70;;;2.07;;
9888;SDS011;4983;42.112;24.738;2023-03-01T11:51:22;2.20;;;2.07;;
9888;SDS011;4983;42.112;24.738;2023-03-01T11:53:52;3.27;;;2.33;;
9888;SDS011;4983;42.112;24.738;2023-03-01T11:56:24;3.07;;;2.60;;
9888;SDS011;4983;42.112;24.738;2023-03-01T11:59:06;2.80;;;2.60;;
9888;SDS011;4983;42.112;24.738;2023-03-01T12:01:41;4.73;;;2.70;;
9888;SDS011;4983;42.112;24.738;2023-03-01T12:06:57;2.80;;;2.60;;
9888;SDS011;4983;42.112;24.738;2023-03-01T12:09:38;3.10;;;2.83;;
9888;SDS011;4983;42.112;24.738;2023-03-01T12:12:25;3.80;;;3.50;;
9888;SDS011;4983;42.112;24.738;2023-03-01T12:14:57;3.40;;;3.03;;
9888;SDS011;4983;42.112;24.738;2023-03-01T12:17:41;3.77;;;3.30;;
9888;SDS011;4983;42.112;24.738;2023-03-01T12:20:17;3.50;;;3.20;;
9888;SDS011;4983;42.112;24.738;2023-03-01T12:22:50;3.80;;;3.50;;
9888;SDS011;4983;42.112;24.738;2023-03-01T12:25:25;2.90;;;2.70;;
9888;SDS011;4983;42.112;24.738;2023-03-01T12:28:01;3.17;;;2.87;;
9888;SDS011;4983;42.112;24.738;2023-03-01T12:30:35;3.20;;;3.00;;
9888;SDS011;4983;42.112;24.738;2023-03-01T12:33:10;3.90;;;3.50;;
9888;SDS011;4983;42.112;24.738;2023-03-01T12:35:44;4.83;;;3.47;;
9888;SDS011;4983;42.112;24.738;2023-03-01T12:38:18;3.97;;;3.27;;
9888;SDS011;4983;42.112;24.738;2023-03-01T12:41:00;3.57;;;3.27;;
9888;SDS011;4983;42.112;24.738;2023-03-01T12:43:32;5.87;;;5.20;;
9888;SDS011;4983;42.112;24.738;2023-03-01T12:46:07;3.40;;;3.10;;
9888;SDS011;4983;42.112;24.738;2023-03-01T12:48:40;3.00;;;2.80;;
9888;SDS011;4983;42.112;24.738;2023-03-01T12:51:08;3.40;;;3.20;;
9888;SDS011;4983;42.112;24.738;2023-03-01T12:53:36;3.27;;;3.03;;
9888;SDS011;4983;42.112;24.738;2023-03-01T12:56:05;4.40;;;4.00;;
9888;SDS011;4983;42.112;24.738;2023-03-01T12:58:33;3.40;;;3.10;;
9888;SDS011;4983;42.112;24.738;2023-03-01T13:01:08;3.93;;;3.63;;
9888;SDS011;4983;42.112;24.738;2023-03-01T13:03:44;4.13;;;3.83;;
9888;SDS011;4983;42.112;24.738;2023-03-01T13:06:15;3.47;;;3.23;;
9888;SDS011;4983;42.112;24.738;2023-03-01T13:08:47;3.80;;;3.30;;
9888;SDS011;4983;42.112;24.738;2023-03-01T13:11:17;3.23;;;2.93;;
9888;SDS011;4983;42.112;24.738;2023-03-01T13:13:44;3.50;;;3.00;;
9888;SDS011;4983;42.112;24.738;2023-03-01T13:19:07;2.50;;;2.30;;
9888;SDS011;4983;42.112;24.738;2023-03-01T13:21:35;3.90;;;3.33;;
9888;SDS011;4983;42.112;24.738;2023-03-01T13:24:01;3.30;;;2.90;;
9888;SDS011;4983;42.112;24.738;2023-03-01T13:26:28;3.40;;;3.10;;
9888;SDS011;4983;42.112;24.738;2023-03-01T13:28:56;2.70;;;2.50;;
9888;SDS011;4983;42.112;24.738;2023-03-01T13:34:44;3.40;;;3.10;;
9888;SDS011;4983;42.112;24.738;2023-03-01T13:37:18;4.10;;;3.70;;
9888;SDS011;4983;42.112;24.738;2023-03-01T13:39:45;4.53;;;3.03;;
9888;SDS011;4983;42.112;24.738;2023-03-01T13:42:29;3.50;;;3.20;;
9888;SDS011;4983;42.112;24.738;2023-03-01T13:44:58;4.10;;;3.70;;
9888;SDS011;4983;42.112;24.738;2023-03-01T13:47:26;4.70;;;4.30;;
9888;SDS011;4983;42.112;24.738;2023-03-01T13:49:56;5.40;;;4.90;;
9888;SDS011;4983;42.112;24.738;2023-03-01T13:52:36;7.63;;;5.30;;
9888;SDS011;4983;42.112;24.738;2023-03-01T13:55:05;4.80;;;4.50;;
9888;SDS011;4983;42.112;24.738;2023-03-01T13:57:34;7.37;;;4.93;;
9888;SDS011;4983;42.112;24.738;2023-03-01T14:00:03;5.13;;;4.67;;
9888;SDS011;4983;42.112;24.738;2023-03-01T14:02:32;4.70;;;4.30;;
9888;SDS011;4983;42.112;24.738;2023-03-01T14:05:00;4.63;;;4.00;;
9888;SDS011;4983;42.112;24.738;2023-03-01T14:07:28;4.73;;;4.27;;
9888;SDS011;4983;42.112;24.738;2023-03-01T14:09:56;6.10;;;4.87;;
9888;SDS011;4983;42.112;24.738;2023-03-01T14:12:27;8.47;;;5.40;;
9888;SDS011;4983;42.112;24.738;2023-03-01T14:14:56;6.67;;;5.87;;
9888;SDS011;4983;42.112;24.738;2023-03-01T14:20:19;7.93;;;5.47;;
9888;SDS011;4983;42.112;24.738;2023-03-01T14:22:46;8.60;;;5.40;;
9888;SDS011;4983;42.112;24.738;2023-03-01T14:25:19;6.17;;;5.57;;
9888;SDS011;4983;42.112;24.738;2023-03-01T14:27:46;7.53;;;5.50;;
9888;SDS011;4983;42.112;24.738;2023-03-01T14:30:18;5.30;;;4.67;;
9888;SDS011;4983;42.112;24.738;2023-03-01T14:32:51;7.83;;;5.13;;
9888;SDS011;4983;42.112;24.738;2023-03-01T14:35:21;5.10;;;4.70;;
9888;SDS011;4983;42.112;24.738;2023-03-01T14:37:49;5.20;;;4.57;;
9888;SDS011;4983;42.112;24.738;2023-03-01T14:40:23;6.07;;;5.57;;
9888;SDS011;4983;42.112;24.738;2023-03-01T14:42:50;6.03;;;5.43;;
9888;SDS011;4983;42.112;24.738;2023-03-01T14:45:18;8.13;;;6.70;;
9888;SDS011;4983;42.112;24.738;2023-03-01T14:47:45;10.50;;;8.17;;
9888;SDS011;4983;42.112;24.738;2023-03-01T14:50:16;10.63;;;6.93;;
9888;SDS011;4983;42.112;24.738;2023-03-01T14:52:48;10.50;;;7.67;;
9888;SDS011;4983;42.112;24.738;2023-03-01T14:55:18;11.10;;;9.70;;
9888;SDS011;4983;42.112;24.738;2023-03-01T14:57:47;117.97;;;15.53;;
9888;SDS011;4983;42.112;24.738;2023-03-01T15:00:16;14.73;;;11.20;;
9888;SDS011;4983;42.112;24.738;2023-03-01T15:02:46;380.80;;;25.70;;
9888;SDS011;4983;42.112;24.738;2023-03-01T15:05:14;10.50;;;9.50;;
9888;SDS011;4983;42.112;24.738;2023-03-01T15:07:43;9.33;;;8.43;;
9888;SDS011;4983;42.112;24.738;2023-03-01T15:10:17;9.43;;;7.90;;
9888;SDS011;4983;42.112;24.738;2023-03-01T15:12:45;9.20;;;7.03;;
9888;SDS011;4983;42.112;24.738;2023-03-01T15:18:04;9.43;;;8.27;;
9888;SDS011;4983;42.112;24.738;2023-03-01T15:20:32;8.17;;;7.37;;
9888;SDS011;4983;42.112;24.738;2023-03-01T15:23:01;8.17;;;7.37;;
9888;SDS011;4983;42.112;24.738;2023-03-01T15:25:30;5.40;;;4.90;;
9888;SDS011;4983;42.112;24.738;2023-03-01T15:27:58;6.13;;;5.53;;
9888;SDS011;4983;42.112;24.738;2023-03-01T15:30:26;7.67;;;5.83;;